Time;durP1;ratioP1;P1;durP2;ratioP2;P2;SDS_P1;SDS_P2;PMS_P1;PMS_P2;Temp;Humidity;BMP_temperature;BMP_pressure;BME280_temperature;BME280_humidity;BME280_pressure;Samples;Min_cycle;Max_cycle;Signal;HPM_P1;HPM_P2
2022/11/08 00:01:34;;;;;;;;;;;;;;;;;;5069631;28;20040;-65
2022/11/08 00:04:06;;;;;;;2.50;1.20;;;;;;;;;;5067019;28;20267;-67
2022/11/08 00:14:49;;;;;;;1.33;1.10;;;;;;;;;;5072562;28;20378;-66
2022/11/08 00:17:16;;;;;;;1.57;1.00;;;;;;;;;;5072049;28;20024;-66
2022/11/08 00:19:44;;;;;;;3.93;2.07;;;;;;;;;;5072087;28;20090;-66
2022/11/08 00:22:14;;;;;;;1.13;0.90;;;;;;;;;;5071789;28;20167;-65
2022/11/08 00:24:43;;;;;;;1.93;0.90;;;;;;;;;;5061342;28;20086;-65
2022/11/08 00:27:22;;;;;;;3.93;1.20;;;;;;;;;;5066699;28;20024;-65
2022/11/08 00:29:49;;;;;;;1.03;0.80;;;;;;;;;;5064510;28;20028;-66
2022/11/08 00:32:17;;;;;;;1.50;0.73;;;;;;;;;;5063250;28;20024;-66
2022/11/08 00:34:44;;;;;;;4.10;1.40;;;;;;;;;;5070224;28;20024;-65
2022/11/08 00:37:11;;;;;;;1.13;0.70;;;;;;;;;;5072034;28;20025;-66
2022/11/08 00:39:38;;;;;;;1.37;0.97;;;;;;;;;;5071629;28;20542;-66
2022/11/08 00:42:04;;;;;;;1.50;0.77;;;;;;;;;;5062595;28;20090;-67
2022/11/08 00:44:31;;;;;;;3.03;1.40;;;;;;;;;;5069897;28;20070;-66
2022/11/08 00:46:58;;;;;;;1.57;1.10;;;;;;;;;;5067985;28;20031;-65
2022/11/08 00:49:25;;;;;;;1.30;0.77;;;;;;;;;;5066217;28;20024;-67
2022/11/08 00:51:55;;;;;;;2.13;1.30;;;;;;;;;;5061753;28;20024;-69
2022/11/08 00:54:22;;;;;;;2.33;1.30;;;;;;;;;;5066707;28;20021;-64
2022/11/08 00:56:49;;;;;;;2.90;1.60;;;;;;;;;;5069941;28;20535;-65
2022/11/08 00:59:17;;;;;;;1.83;1.30;;;;;;;;;;5071900;28;20149;-65
2022/11/08 01:01:44;;;;;;;1.57;0.90;;;;;;;;;;5073836;28;20021;-66
2022/11/08 01:04:12;;;;;;;2.73;1.40;;;;;;;;;;5075388;28;20028;-65
2022/11/08 01:06:39;;;;;;;1.87;1.43;;;;;;;;;;5075226;28;20393;-65
2022/11/08 01:09:07;;;;;;;19.00;1.80;;;;;;;;;;5071004;28;20033;-64
2022/11/08 01:11:33;;;;;;;1.80;1.33;;;;;;;;;;5069576;28;20455;-67
2022/11/08 01:14:00;;;;;;;3.43;1.93;;;;;;;;;;5070104;28;20546;-66
2022/11/08 01:16:28;;;;;;;2.07;1.53;;;;;;;;;;5070143;28;20029;-66
2022/11/08 01:18:56;;;;;;;1.20;0.87;;;;;;;;;;5072503;28;20024;-68
2022/11/08 01:21:24;;;;;;;1.33;1.10;;;;;;;;;;5074898;28;20032;-67
2022/11/08 01:23:53;;;;;;;1.47;1.13;;;;;;;;;;5074711;28;20029;-65
2022/11/08 01:26:21;;;;;;;3.20;1.33;;;;;;;;;;5074388;28;20036;-68
2022/11/08 01:28:48;;;;;;;0.97;0.83;;;;;;;;;;5075273;28;20029;-67
2022/11/08 01:31:16;;;;;;;0.80;0.60;;;;;;;;;;5072072;28;20043;-68
2022/11/08 01:33:43;;;;;;;2.20;0.80;;;;;;;;;;5069698;28;20028;-68
2022/11/08 01:36:14;;;;;;;1.17;0.87;;;;;;;;;;5069239;28;20020;-67
2022/11/08 01:38:40;;;;;;;3.33;2.43;;;;;;;;;;5069340;28;20024;-66
2022/11/08 01:41:07;;;;;;;2.77;1.40;;;;;;;;;;5070008;28;20032;-66
2022/11/08 01:43:41;;;;;;;4.80;2.10;;;;;;;;;;5065133;28;20024;-65
2022/11/08 01:46:20;;;;;;;1.65;1.20;;;;;;;;;;5074863;28;20028;-66
2022/11/08 01:48:49;;;;;;;2.90;1.40;;;;;;;;;;5074766;28;20059;-67
2022/11/08 01:51:16;;;;;;;1.50;0.90;;;;;;;;;;5073610;28;20035;-67
2022/11/08 01:53:44;;;;;;;2.80;0.93;;;;;;;;;;5070420;28;20029;-68
2022/11/08 01:56:11;;;;;;;2.63;1.57;;;;;;;;;;5069370;28;20533;-69
2022/11/08 01:58:39;;;;;;;1.60;1.30;;;;;;;;;;5068880;28;20034;-66
2022/11/08 02:01:06;;;;;;;2.93;1.60;;;;;;;;;;5068820;28;20020;-67
2022/11/08 02:03:33;;;;;;;7.00;2.03;;;;;;;;;;5071603;28;20047;-64
2022/11/08 02:06:01;;;;;;;2.23;1.43;;;;;;;;;;5074491;28;20024;-68
2022/11/08 02:08:36;;;;;;;2.93;1.77;;;;;;;;;;5073916;28;20089;-69
2022/11/08 02:11:03;;;;;;;2.10;1.20;;;;;;;;;;5068224;28;20025;-69
2022/11/08 02:13:31;;;;;;;3.60;1.97;;;;;;;;;;5072967;28;20032;-68
2022/11/08 02:15:58;;;;;;;2.00;1.53;;;;;;;;;;5071338;28;20858;-66
2022/11/08 02:18:29;;;;;;;2.83;1.50;;;;;;;;;;5068094;28;20032;-67
2022/11/08 02:20:56;;;;;;;1.77;1.27;;;;;;;;;;5068097;28;20468;-68
2022/11/08 02:23:32;;;;;;;1.67;0.97;;;;;;;;;;5067545;28;20064;-69
2022/11/08 02:25:58;;;;;;;1.53;1.23;;;;;;;;;;5070958;28;20081;-66
2022/11/08 02:28:25;;;;;;;2.37;1.67;;;;;;;;;;5073513;28;20036;-68
2022/11/08 02:30:53;;;;;;;1.70;1.33;;;;;;;;;;5073667;28;20043;-69
2022/11/08 02:33:21;;;;;;;2.97;1.93;;;;;;;;;;5073248;28;20166;-64
2022/11/08 02:35:49;;;;;;;1.27;0.77;;;;;;;;;;5073859;28;20028;-64
2022/11/08 02:38:16;;;;;;;2.33;1.57;;;;;;;;;;5070168;28;20024;-63
2022/11/08 02:40:50;;;;;;;1.00;0.77;;;;;;;;;;5067251;28;20025;-64
2022/11/08 02:43:17;;;;;;;2.25;1.25;;;;;;;;;;5064113;28;20031;-68
2022/11/08 02:45:44;;;;;;;1.10;1.00;;;;;;;;;;5065912;28;20060;-68
2022/11/08 02:48:11;;;;;;;1.00;0.70;;;;;;;;;;5069796;28;20528;-64
2022/11/08 02:50:38;;;;;;;2.00;1.00;;;;;;;;;;5073289;28;20036;-67
2022/11/08 02:53:05;;;;;;;3.93;1.60;;;;;;;;;;5073580;28;20028;-68
2022/11/08 02:55:33;;;;;;;2.57;1.43;;;;;;;;;;5072992;28;20027;-66
2022/11/08 02:58:00;;;;;;;2.90;1.87;;;;;;;;;;5073530;28;20060;-68
2022/11/08 03:00:27;;;;;;;2.20;1.47;;;;;;;;;;5061576;28;20044;-65
2022/11/08 03:02:54;;;;;;;1.60;1.30;;;;;;;;;;5067139;28;20078;-64
2022/11/08 03:05:21;;;;;;;1.70;1.30;;;;;;;;;;5067195;28;20044;-68
2022/11/08 03:07:48;;;;;;;3.57;2.00;;;;;;;;;;5067754;28;20032;-68
2022/11/08 03:10:15;;;;;;;2.70;1.70;;;;;;;;;;5069525;28;20066;-68
2022/11/08 03:12:42;;;;;;;1.83;1.37;;;;;;;;;;5072726;28;20085;-65
2022/11/08 03:15:09;;;;;;;1.77;1.40;;;;;;;;;;5073129;28;20098;-66
2022/11/08 03:17:36;;;;;;;1.23;1.10;;;;;;;;;;5072859;28;20032;-68
2022/11/08 03:20:03;;;;;;;2.00;1.33;;;;;;;;;;5072774;28;20031;-68
2022/11/08 03:22:30;;;;;;;2.20;1.73;;;;;;;;;;5071145;28;20036;-64
2022/11/08 03:24:56;;;;;;;3.30;1.53;;;;;;;;;;5066646;28;20526;-64
2022/11/08 03:27:23;;;;;;;2.33;1.87;;;;;;;;;;5066982;28;20033;-64
2022/11/08 03:29:50;;;;;;;2.77;1.57;;;;;;;;;;5066710;28;20037;-66
2022/11/08 03:32:17;;;;;;;2.10;1.50;;;;;;;;;;5068252;28;20032;-67
2022/11/08 03:34:43;;;;;;;2.53;2.03;;;;;;;;;;5071264;28;20021;-67
2022/11/08 03:37:10;;;;;;;3.23;1.47;;;;;;;;;;5072499;28;20032;-65
2022/11/08 03:39:37;;;;;;;3.67;2.10;;;;;;;;;;5072611;28;20020;-67
2022/11/08 03:42:05;;;;;;;3.23;2.10;;;;;;;;;;5072619;28;20103;-66
2022/11/08 03:44:32;;;;;;;2.33;1.70;;;;;;;;;;5059338;28;20024;-65
2022/11/08 03:46:59;;;;;;;3.53;1.97;;;;;;;;;;5066637;28;20024;-63
2022/11/08 03:49:26;;;;;;;1.90;1.47;;;;;;;;;;5067060;28;20037;-65
2022/11/08 03:51:54;;;;;;;1.60;1.33;;;;;;;;;;5067027;28;20514;-67
2022/11/08 03:54:20;;;;;;;2.13;1.20;;;;;;;;;;5066982;28;20150;-66
2022/11/08 03:56:47;;;;;;;1.60;1.17;;;;;;;;;;5072330;28;20024;-65
2022/11/08 03:59:14;;;;;;;2.10;1.37;;;;;;;;;;5072478;28;20016;-65
2022/11/08 04:01:40;;;;;;;3.20;1.90;;;;;;;;;;5072399;28;20025;-67
2022/11/08 04:04:07;;;;;;;1.43;1.03;;;;;;;;;;5071331;28;20140;-67
2022/11/08 04:06:34;;;;;;;1.97;1.27;;;;;;;;;;5070152;28;20533;-66
2022/11/08 04:09:01;;;;;;;1.67;1.50;;;;;;;;;;5066857;28;20025;-68
2022/11/08 04:16:58;;;;;;;4.05;1.60;;;;;;;;;;5067716;28;20115;-64
2022/11/08 04:22:10;;;;;;;2.83;1.77;;;;;;;;;;5072356;28;20039;-65
2022/11/08 04:24:37;;;;;;;2.13;1.50;;;;;;;;;;5071689;28;20029;-64
2022/11/08 04:27:04;;;;;;;5.43;1.47;;;;;;;;;;5071867;28;20031;-64
2022/11/08 04:29:31;;;;;;;13.10;2.93;;;;;;;;;;5070010;28;20157;-64
2022/11/08 04:31:57;;;;;;;3.03;1.60;;;;;;;;;;5066541;28;20070;-63
2022/11/08 04:34:24;;;;;;;1.83;1.50;;;;;;;;;;5066402;28;20032;-64
2022/11/08 04:36:50;;;;;;;2.13;1.70;;;;;;;;;;5069418;28;20031;-64
2022/11/08 04:39:17;;;;;;;1.70;1.40;;;;;;;;;;5071837;28;20056;-64
2022/11/08 04:41:44;;;;;;;1.33;1.23;;;;;;;;;;5075998;28;20464;-63
2022/11/08 04:44:10;;;;;;;2.43;1.73;;;;;;;;;;5061011;28;20459;-63
2022/11/08 04:46:37;;;;;;;6.33;2.13;;;;;;;;;;5076101;28;20021;-64
2022/11/08 04:49:04;;;;;;;3.67;2.00;;;;;;;;;;5076025;28;20067;-65
2022/11/08 04:51:31;;;;;;;2.87;1.80;;;;;;;;;;5074842;28;20051;-68
2022/11/08 04:54:00;;;;;;;2.60;1.47;;;;;;;;;;5070483;28;20425;-66
2022/11/08 04:56:28;;;;;;;2.67;1.57;;;;;;;;;;5069419;28;20545;-65
2022/11/08 04:58:56;;;;;;;1.83;1.43;;;;;;;;;;5070045;28;20468;-66
2022/11/08 05:01:24;;;;;;;3.37;2.10;;;;;;;;;;5070581;28;20024;-63
2022/11/08 05:03:52;;;;;;;3.40;2.13;;;;;;;;;;5075844;28;20097;-65
2022/11/08 05:06:20;;;;;;;3.90;1.67;;;;;;;;;;5075199;28;20043;-66
2022/11/08 05:08:47;;;;;;;2.60;1.63;;;;;;;;;;5075363;28;20064;-67
2022/11/08 05:11:15;;;;;;;1.30;1.10;;;;;;;;;;5075471;28;20040;-64
2022/11/08 05:13:42;;;;;;;1.60;1.10;;;;;;;;;;5074681;28;20031;-66
2022/11/08 05:16:11;;;;;;;1.47;1.20;;;;;;;;;;5069496;28;20025;-67
2022/11/08 05:18:38;;;;;;;2.07;1.50;;;;;;;;;;5069527;28;20041;-65
2022/11/08 05:23:50;;;;;;;1.42;1.05;;;;;;;;;;5070690;28;20461;-66
2022/11/08 05:26:18;;;;;;;2.33;1.40;;;;;;;;;;5074692;28;20029;-65
2022/11/08 05:28:44;;;;;;;2.60;1.07;;;;;;;;;;5074914;28;20111;-65
2022/11/08 05:31:11;;;;;;;0.70;0.63;;;;;;;;;;5075289;28;20025;-66
2022/11/08 05:33:38;;;;;;;1.30;0.90;;;;;;;;;;5075040;28;20023;-65
2022/11/08 05:36:06;;;;;;;0.70;0.50;;;;;;;;;;5073698;28;20021;-65
2022/11/08 05:38:33;;;;;;;0.87;0.70;;;;;;;;;;5069477;28;20028;-65
2022/11/08 05:41:04;;;;;;;1.10;0.90;;;;;;;;;;5069475;28;20024;-66
2022/11/08 05:43:30;;;;;;;0.77;0.70;;;;;;;;;;5059170;28;20358;-65
2022/11/08 05:45:57;;;;;;;1.67;0.70;;;;;;;;;;5069177;28;20024;-66
2022/11/08 05:48:24;;;;;;;0.90;0.47;;;;;;;;;;5073556;28;20062;-63
2022/11/08 05:50:51;;;;;;;0.20;0.20;;;;;;;;;;5074759;28;20024;-63
2022/11/08 05:53:17;;;;;;;1.13;1.03;;;;;;;;;;5074537;28;20021;-64
2022/11/08 05:55:44;;;;;;;0.40;0.37;;;;;;;;;;5074523;28;20494;-63
2022/11/08 05:58:11;;;;;;;0.20;0.20;;;;;;;;;;5074095;28;20538;-63
2022/11/08 06:00:37;;;;;;;0.50;0.40;;;;;;;;;;5068860;28;20032;-63
2022/11/08 06:03:05;;;;;;;0.50;0.40;;;;;;;;;;5069116;28;20024;-63
2022/11/08 06:05:33;;;;;;;0.30;0.30;;;;;;;;;;5068867;28;20035;-63
2022/11/08 06:07:59;;;;;;;1.20;0.67;;;;;;;;;;5068896;28;20562;-63
2022/11/08 06:10:26;;;;;;;0.33;0.30;;;;;;;;;;5074109;28;20150;-63
2022/11/08 06:12:53;;;;;;;0.70;0.43;;;;;;;;;;5074423;28;20059;-63
2022/11/08 06:15:19;;;;;;;0.60;0.40;;;;;;;;;;5074231;28;20024;-63
2022/11/08 06:17:46;;;;;;;0.30;0.30;;;;;;;;;;5073545;28;20151;-63
2022/11/08 06:20:13;;;;;;;0.70;0.60;;;;;;;;;;5074279;28;20021;-63
2022/11/08 06:22:39;;;;;;;0.57;0.57;;;;;;;;;;5068756;28;20030;-63
2022/11/08 06:25:06;;;;;;;1.10;0.77;;;;;;;;;;5068386;28;20505;-63
2022/11/08 06:27:33;;;;;;;1.20;0.83;;;;;;;;;;5068644;28;20036;-63
2022/11/08 06:30:00;;;;;;;1.23;0.90;;;;;;;;;;5068735;28;20105;-63
2022/11/08 06:32:26;;;;;;;1.10;0.80;;;;;;;;;;5073186;28;20047;-63
2022/11/08 06:34:53;;;;;;;1.80;0.93;;;;;;;;;;5055312;28;20379;-63
2022/11/08 06:37:20;;;;;;;2.07;0.87;;;;;;;;;;5073971;28;20419;-63
2022/11/08 06:39:46;;;;;;;1.10;1.00;;;;;;;;;;5073993;28;20495;-63
2022/11/08 06:42:13;;;;;;;0.83;0.73;;;;;;;;;;5073800;28;20024;-63
2022/11/08 06:44:40;;;;;;;1.07;0.80;;;;;;;;;;5068319;28;20029;-63
2022/11/08 06:47:06;;;;;;;1.33;1.07;;;;;;;;;;5068514;28;20028;-63
2022/11/08 06:49:35;;;;;;;1.97;1.43;;;;;;;;;;5068159;28;20347;-63
2022/11/08 06:52:02;;;;;;;1.03;0.93;;;;;;;;;;5068102;28;20024;-63
2022/11/08 06:54:29;;;;;;;1.50;1.00;;;;;;;;;;5072237;28;20060;-62
2022/11/08 06:56:59;;;;;;;1.20;0.93;;;;;;;;;;5073172;28;20555;-63
2022/11/08 06:59:26;;;;;;;1.10;0.97;;;;;;;;;;5073311;28;20020;-63
2022/11/08 07:01:53;;;;;;;3.20;1.17;;;;;;;;;;5073198;28;20027;-63
2022/11/08 07:04:19;;;;;;;1.23;0.87;;;;;;;;;;5073345;28;20024;-62
2022/11/08 07:06:46;;;;;;;0.30;0.30;;;;;;;;;;5068372;28;20024;-63
2022/11/08 07:09:13;;;;;;;0.63;0.47;;;;;;;;;;5067736;28;20025;-63
2022/11/08 07:11:40;;;;;;;0.90;0.77;;;;;;;;;;5067786;28;20115;-63
2022/11/08 07:14:06;;;;;;;1.20;0.97;;;;;;;;;;5067625;28;20021;-63
2022/11/08 07:16:33;;;;;;;0.97;0.60;;;;;;;;;;5070712;28;20025;-62
2022/11/08 07:19:00;;;;;;;5.00;1.50;;;;;;;;;;5072970;28;20035;-62
2022/11/08 07:21:26;;;;;;;1.10;0.77;;;;;;;;;;5072973;28;20025;-63
2022/11/08 07:23:53;;;;;;;1.33;1.13;;;;;;;;;;5072439;28;20064;-62
2022/11/08 07:26:19;;;;;;;0.50;0.50;;;;;;;;;;5072644;28;20036;-63
2022/11/08 07:28:46;;;;;;;1.27;0.97;;;;;;;;;;5069403;28;20040;-62
2022/11/08 07:31:13;;;;;;;1.43;1.10;;;;;;;;;;5067471;28;20554;-63
2022/11/08 07:33:39;;;;;;;1.10;1.00;;;;;;;;;;5067345;28;20127;-63
2022/11/08 07:36:06;;;;;;;1.17;1.00;;;;;;;;;;5066867;28;20036;-62
2022/11/08 07:38:33;;;;;;;1.50;1.10;;;;;;;;;;5069994;28;20016;-63
2022/11/08 07:41:01;;;;;;;1.17;1.07;;;;;;;;;;5072278;28;20039;-62
2022/11/08 07:43:28;;;;;;;1.20;0.97;;;;;;;;;;5072642;28;20035;-63
2022/11/08 07:45:56;;;;;;;1.60;1.23;;;;;;;;;;5072342;28;20115;-63
2022/11/08 07:48:23;;;;;;;1.00;0.90;;;;;;;;;;5072643;28;20368;-63
2022/11/08 07:50:49;;;;;;;2.43;1.33;;;;;;;;;;5069844;28;20031;-63
2022/11/08 07:53:16;;;;;;;1.20;1.10;;;;;;;;;;5066934;28;20024;-62
2022/11/08 07:55:45;;;;;;;1.50;1.00;;;;;;;;;;5066575;28;20107;-62
2022/11/08 07:58:11;;;;;;;1.13;0.97;;;;;;;;;;5066762;28;20016;-62
2022/11/08 08:00:39;;;;;;;1.77;1.50;;;;;;;;;;5069049;28;20129;-63
2022/11/08 08:03:07;;;;;;;1.50;1.27;;;;;;;;;;5072400;28;20044;-63
2022/11/08 08:05:35;;;;;;;0.73;0.73;;;;;;;;;;5072107;28;20048;-62
2022/11/08 08:08:02;;;;;;;1.60;1.37;;;;;;;;;;5072300;28;20028;-62
2022/11/08 08:10:29;;;;;;;2.83;1.20;;;;;;;;;;5071596;28;20023;-63
2022/11/08 08:12:57;;;;;;;1.57;1.17;;;;;;;;;;5069470;28;20375;-63
2022/11/08 08:15:24;;;;;;;1.13;0.93;;;;;;;;;;5066663;28;20104;-62
2022/11/08 08:17:50;;;;;;;1.43;1.23;;;;;;;;;;5066855;28;20101;-62
2022/11/08 08:20:18;;;;;;;1.33;1.07;;;;;;;;;;5066947;28;20425;-62
2022/11/08 08:22:45;;;;;;;3.03;1.60;;;;;;;;;;5068270;28;20028;-63
2022/11/08 08:25:12;;;;;;;2.03;1.60;;;;;;;;;;5071592;28;20040;-62
2022/11/08 08:27:39;;;;;;;2.33;1.10;;;;;;;;;;5071824;28;20086;-62
2022/11/08 08:30:06;;;;;;;1.97;1.60;;;;;;;;;;5071501;28;20050;-62
2022/11/08 08:32:33;;;;;;;3.30;1.60;;;;;;;;;;5071899;28;20047;-63
2022/11/08 08:34:59;;;;;;;1.57;1.23;;;;;;;;;;5069968;28;20036;-62
2022/11/08 08:37:26;;;;;;;2.10;1.53;;;;;;;;;;5066544;28;20024;-62
2022/11/08 08:39:53;;;;;;;1.47;1.13;;;;;;;;;;5066376;28;20021;-63
2022/11/08 08:42:19;;;;;;;1.60;1.20;;;;;;;;;;5066447;28;20546;-62
2022/11/08 08:44:46;;;;;;;1.07;0.97;;;;;;;;;;5067390;28;20021;-62
2022/11/08 08:47:13;;;;;;;1.50;1.13;;;;;;;;;;5071376;28;20021;-62
2022/11/08 08:49:39;;;;;;;1.80;1.20;;;;;;;;;;5071421;28;20506;-63
2022/11/08 08:52:06;;;;;;;1.40;1.17;;;;;;;;;;5072248;28;20383;-62
2022/11/08 08:54:32;;;;;;;1.30;1.20;;;;;;;;;;5071663;28;20490;-62
2022/11/08 08:56:59;;;;;;;1.83;1.40;;;;;;;;;;5070716;28;20028;-63
2022/11/08 08:59:29;;;;;;;1.37;1.13;;;;;;;;;;5066354;28;20028;-62
2022/11/08 09:01:58;;;;;;;0.70;0.70;;;;;;;;;;5066384;28;20103;-62
2022/11/08 09:04:25;;;;;;;2.97;1.53;;;;;;;;;;5065469;28;20035;-62
2022/11/08 09:06:51;;;;;;;1.47;1.13;;;;;;;;;;5066420;28;20063;-62
2022/11/08 09:09:18;;;;;;;1.03;0.90;;;;;;;;;;5071773;28;20061;-62
2022/11/08 09:11:45;;;;;;;3.77;0.87;;;;;;;;;;5071623;28;20025;-62
2022/11/08 09:14:11;;;;;;;1.10;1.00;;;;;;;;;;5071306;28;20341;-62
2022/11/08 09:16:38;;;;;;;2.53;0.67;;;;;;;;;;5071674;28;20496;-62
2022/11/08 09:19:05;;;;;;;2.20;0.87;;;;;;;;;;5070929;28;20016;-62
2022/11/08 09:21:31;;;;;;;0.93;0.83;;;;;;;;;;5065881;28;20382;-62
2022/11/08 09:23:58;;;;;;;1.40;1.07;;;;;;;;;;5069540;28;20033;-62
2022/11/08 09:26:24;;;;;;;1.03;0.93;;;;;;;;;;5069889;28;20529;-62
2022/11/08 09:28:51;;;;;;;2.13;1.00;;;;;;;;;;5069602;28;20507;-62
2022/11/08 09:31:18;;;;;;;2.07;1.23;;;;;;;;;;5074540;28;20426;-62
2022/11/08 09:33:44;;;;;;;1.67;1.43;;;;;;;;;;5075144;28;20029;-63
2022/11/08 09:36:12;;;;;;;1.20;1.10;;;;;;;;;;5075093;28;20036;-62
2022/11/08 09:38:40;;;;;;;1.53;1.20;;;;;;;;;;5074584;28;20495;-62
2022/11/08 09:41:10;;;;;;;1.30;1.00;;;;;;;;;;5074570;28;20028;-62
2022/11/08 09:43:55;;;;;;;2.23;1.33;;;;;;;;;;5069544;28;20070;-62
2022/11/08 09:46:42;;;;;;;1.60;1.38;;;;;;;;;;5069462;28;20380;-63
2022/11/08 09:49:13;;;;;;;1.67;1.37;;;;;;;;;;5069088;28;20040;-62
2022/11/08 09:51:40;;;;;;;0.70;0.70;;;;;;;;;;5069792;28;20439;-62
2022/11/08 09:54:12;;;;;;;2.67;1.83;;;;;;;;;;5074583;28;20021;-62
2022/11/08 09:56:39;;;;;;;1.23;1.10;;;;;;;;;;5074735;28;20494;-61
2022/11/08 09:59:26;;;;;;;2.23;1.60;;;;;;;;;;5074455;28;20021;-62
2022/11/08 10:01:52;;;;;;;1.53;0.90;;;;;;;;;;5057680;28;20044;-62
2022/11/08 10:04:21;;;;;;;1.43;1.17;;;;;;;;;;5072490;28;20037;-62
2022/11/08 10:07:09;;;;;;;2.03;1.10;;;;;;;;;;5069035;28;20554;-62
2022/11/08 10:09:59;;;;;;;1.07;0.97;;;;;;;;;;5068844;28;20037;-62
2022/11/08 10:12:33;;;;;;;1.40;1.30;;;;;;;;;;5068165;28;20067;-62
2022/11/08 10:14:59;;;;;;;1.13;1.03;;;;;;;;;;5072045;28;20031;-62
2022/11/08 10:17:44;;;;;;;1.47;1.10;;;;;;;;;;5074156;28;20088;-62
2022/11/08 10:20:11;;;;;;;0.57;0.57;;;;;;;;;;5074166;28;20027;-62
2022/11/08 10:22:49;;;;;;;1.53;0.90;;;;;;;;;;5074113;28;20052;-62
2022/11/08 10:25:22;;;;;;;1.47;1.30;;;;;;;;;;5074184;28;20406;-62
2022/11/08 10:27:51;;;;;;;0.77;0.63;;;;;;;;;;5069231;28;20109;-62
2022/11/08 10:30:19;;;;;;;0.67;0.63;;;;;;;;;;5068553;28;20035;-62
2022/11/08 10:32:56;;;;;;;1.03;0.93;;;;;;;;;;5068393;28;20029;-62
2022/11/08 10:35:29;;;;;;;1.53;0.90;;;;;;;;;;5068153;28;20021;-62
2022/11/08 10:37:58;;;;;;;1.03;0.90;;;;;;;;;;5072874;28;20059;-62
2022/11/08 10:40:42;;;;;;;0.40;0.40;;;;;;;;;;5073693;28;20479;-62
2022/11/08 10:43:14;;;;;;;1.17;1.03;;;;;;;;;;5053819;28;20020;-62
2022/11/08 10:45:41;;;;;;;2.10;1.20;;;;;;;;;;5053627;28;20039;-62
2022/11/08 10:48:09;;;;;;;1.13;0.90;;;;;;;;;;5053602;28;20025;-62
2022/11/08 10:50:46;;;;;;;0.80;0.70;;;;;;;;;;5058497;28;20375;-62
2022/11/08 10:53:32;;;;;;;0.50;0.50;;;;;;;;;;5068449;28;20036;-62
2022/11/08 10:56:03;;;;;;;2.38;1.40;;;;;;;;;;5068182;28;20104;-62
2022/11/08 10:58:30;;;;;;;0.30;0.30;;;;;;;;;;5068341;28;20027;-62
2022/11/08 11:01:13;;;;;;;0.77;0.70;;;;;;;;;;5073261;28;20099;-62
2022/11/08 11:03:39;;;;;;;30.97;1.27;;;;;;;;;;5073411;28;20476;-62
2022/11/08 11:06:07;;;;;;;1.87;0.90;;;;;;;;;;5073169;28;20031;-62
2022/11/08 11:08:33;;;;;;;0.60;0.50;;;;;;;;;;5073305;28;20033;-62
2022/11/08 11:11:29;;;;;;;1.23;1.03;;;;;;;;;;5071180;28;20371;-62
2022/11/08 11:13:55;;;;;;;;;;;;;;;;;;5046868;28;20040;-61
2022/11/08 11:16:22;;;;;;;1.07;0.97;;;;;;;;;;5067491;28;19904;-62
2022/11/08 11:18:49;;;;;;;0.57;0.57;;;;;;;;;;5067546;28;20497;-62
2022/11/08 11:21:23;;;;;;;0.60;0.60;;;;;;;;;;5069244;28;20025;-62
2022/11/08 11:23:49;;;;;;;2.00;0.80;;;;;;;;;;5072906;28;20028;-62
2022/11/08 11:26:37;;;;;;;1.27;0.87;;;;;;;;;;5072952;28;20033;-63
2022/11/08 11:29:04;;;;;;;0.77;0.67;;;;;;;;;;5072779;28;20036;-62
2022/11/08 11:31:32;;;;;;;1.30;0.90;;;;;;;;;;5072491;28;20025;-62
2022/11/08 11:33:59;;;;;;;0.70;0.60;;;;;;;;;;5069587;28;20032;-62
2022/11/08 11:36:28;;;;;;;0.83;0.60;;;;;;;;;;5067287;28;20028;-62
2022/11/08 11:39:03;;;;;;;0.73;0.60;;;;;;;;;;5067246;28;20499;-62
2022/11/08 11:41:29;;;;;;;;;;;;;;;;;;5068288;28;20032;-62
2022/11/08 11:44:07;;;;;;;0.90;0.73;;;;;;;;;;5069879;28;19911;-62
2022/11/08 11:46:48;;;;;;;2.23;0.87;;;;;;;;;;5071787;28;20024;-62
2022/11/08 11:49:19;;;;;;;1.03;0.93;;;;;;;;;;5072622;28;20058;-61
2022/11/08 11:51:46;;;;;;;1.13;0.93;;;;;;;;;;5072265;28;20037;-62
2022/11/08 11:54:16;;;;;;;1.93;1.30;;;;;;;;;;5072204;28;20103;-61
2022/11/08 11:56:56;;;;;;;1.70;1.30;;;;;;;;;;5068024;28;20402;-62
2022/11/08 11:59:26;;;;;;;0.60;0.57;;;;;;;;;;5067236;28;20029;-62
2022/11/08 12:02:03;;;;;;;1.00;0.90;;;;;;;;;;5066246;28;20027;-63
2022/11/08 12:04:48;;;;;;;1.00;0.90;;;;;;;;;;5066889;28;20024;-62
2022/11/08 12:07:24;;;;;;;2.80;1.52;;;;;;;;;;5072052;28;20368;-62
2022/11/08 12:09:54;;;;;;;0.80;0.67;;;;;;;;;;5072010;28;20078;-61
2022/11/08 12:12:38;;;;;;;1.70;1.10;;;;;;;;;;5071987;28;20042;-62
2022/11/08 12:15:11;;;;;;;1.27;0.80;;;;;;;;;;5072108;28;20024;-63
2022/11/08 12:17:50;;;;;;;0.93;0.67;;;;;;;;;;5071353;28;20025;-61
2022/11/08 12:20:22;;;;;;;0.73;0.63;;;;;;;;;;5066845;28;20050;-62
2022/11/08 12:22:52;;;;;;;0.30;0.30;;;;;;;;;;5066452;28;20024;-61
2022/11/08 12:25:19;;;;;;;1.00;0.83;;;;;;;;;;5066309;28;20055;-62
2022/11/08 12:27:52;;;;;;;2.47;0.60;;;;;;;;;;5067287;28;20039;-62
2022/11/08 12:30:20;;;;;;;1.90;0.77;;;;;;;;;;5072056;28;20361;-61
2022/11/08 12:32:56;;;;;;;0.50;0.50;;;;;;;;;;5071760;28;20027;-62
2022/11/08 12:35:35;;;;;;;1.20;0.63;;;;;;;;;;5072015;28;20491;-62
2022/11/08 12:38:11;;;;;;;0.77;0.67;;;;;;;;;;5072050;28;20017;-62
2022/11/08 12:40:56;;;;;;;0.77;0.63;;;;;;;;;;5069468;28;20043;-62
2022/11/08 12:43:43;;;;;;;0.35;0.32;;;;;;;;;;5066209;28;20043;-62
2022/11/08 12:46:17;;;;;;;0.40;0.40;;;;;;;;;;5049433;28;20043;-62
2022/11/08 12:48:55;;;;;;;0.30;0.30;;;;;;;;;;5066267;28;20028;-62
2022/11/08 12:51:27;;;;;;;2.03;0.80;;;;;;;;;;5070457;28;20029;-62
2022/11/08 12:54:12;;;;;;;1.77;1.30;;;;;;;;;;5071618;28;20029;-62
2022/11/08 12:56:41;;;;;;;3.17;1.33;;;;;;;;;;5072351;28;20074;-62
2022/11/08 12:59:28;;;;;;;0.47;0.47;;;;;;;;;;5075890;28;20052;-62
2022/11/08 13:01:55;;;;;;;1.07;0.80;;;;;;;;;;5075133;28;20021;-62
2022/11/08 13:04:31;;;;;;;1.27;1.03;;;;;;;;;;5070172;28;20021;-62
2022/11/08 13:07:18;;;;;;;1.67;1.30;;;;;;;;;;5070343;28;20073;-62
2022/11/08 13:09:47;;;;;;;1.17;0.80;;;;;;;;;;5069851;28;20093;-62
2022/11/08 13:12:29;;;;;;;0.70;0.70;;;;;;;;;;5070466;28;20490;-62
2022/11/08 13:14:58;;;;;;;2.03;1.37;;;;;;;;;;5075299;28;20029;-62
2022/11/08 13:17:26;;;;;;;2.97;1.60;;;;;;;;;;5075478;28;20383;-62
2022/11/08 13:19:54;;;;;;;2.53;1.87;;;;;;;;;;5075072;28;20020;-62
2022/11/08 13:22:31;;;;;;;1.00;0.93;;;;;;;;;;5074738;28;20066;-62
2022/11/08 13:25:01;;;;;;;2.20;1.33;;;;;;;;;;5072993;28;20025;-62
2022/11/08 13:27:33;;;;;;;2.13;1.43;;;;;;;;;;5068550;28;20036;-62
2022/11/08 13:30:20;;;;;;;2.20;1.03;;;;;;;;;;5068001;28;20055;-62
2022/11/08 13:32:50;;;;;;;1.33;1.03;;;;;;;;;;5037276;28;20105;-62
2022/11/08 13:35:45;;;;;;;4.10;1.50;;;;;;;;;;5070395;28;20025;-62
2022/11/08 13:38:12;;;;;;;3.50;1.88;;;;;;;;;;4984290;28;20066;-62
2022/11/08 13:40:43;;;;;;;2.07;1.37;;;;;;;;;;5072841;28;20023;-62
2022/11/08 13:43:21;;;;;;;8.13;2.57;;;;;;;;;;5074251;28;20036;-63
2022/11/08 13:45:48;;;;;;;3.63;1.57;;;;;;;;;;5075100;28;20045;-62
2022/11/08 13:48:17;;;;;;;1.10;1.00;;;;;;;;;;5070634;28;20035;-63
2022/11/08 13:50:45;;;;;;;3.83;1.53;;;;;;;;;;5068809;28;20024;-62
2022/11/08 13:53:21;;;;;;;1.20;0.97;;;;;;;;;;5069102;28;20544;-62
2022/11/08 13:55:55;;;;;;;1.27;0.93;;;;;;;;;;5069301;28;20029;-63
2022/11/08 13:58:30;;;;;;;3.35;1.67;;;;;;;;;;5073568;28;20020;-62
2022/11/08 14:00:57;;;;;;;2.53;0.90;;;;;;;;;;5074340;28;20025;-62
2022/11/08 14:03:33;;;;;;;3.07;1.27;;;;;;;;;;5074521;28;20027;-62
2022/11/08 14:06:08;;;;;;;1.57;0.83;;;;;;;;;;5074622;28;20020;-62
2022/11/08 14:08:43;;;;;;;1.10;0.87;;;;;;;;;;5073662;28;20078;-63
2022/11/08 14:11:16;;;;;;;5.72;1.23;;;;;;;;;;5068256;28;20017;-62
2022/11/08 14:13:43;;;;;;;1.73;0.73;;;;;;;;;;5067834;28;20451;-63
2022/11/08 14:16:18;;;;;;;2.60;1.13;;;;;;;;;;5068765;28;20020;-63
2022/11/08 14:18:45;;;;;;;0.60;0.60;;;;;;;;;;5068545;28;20028;-62
2022/11/08 14:21:17;;;;;;;1.23;0.73;;;;;;;;;;5073713;28;20417;-63
2022/11/08 14:23:44;;;;;;;2.37;1.30;;;;;;;;;;5074003;28;20074;-62
2022/11/08 14:26:13;;;;;;;1.90;0.70;;;;;;;;;;5073879;28;20025;-63
2022/11/08 14:28:41;;;;;;;0.83;0.70;;;;;;;;;;5074037;28;20032;-62
2022/11/08 14:31:24;;;;;;;0.90;0.60;;;;;;;;;;5073839;28;20100;-63
2022/11/08 14:33:51;;;;;;;3.80;0.80;;;;;;;;;;5068356;28;20426;-63
2022/11/08 14:36:18;;;;;;;1.60;1.10;;;;;;;;;;5068134;28;20505;-63
2022/11/08 14:38:51;;;;;;;0.93;0.70;;;;;;;;;;5068401;28;20029;-63
2022/11/08 14:41:24;;;;;;;3.73;2.07;;;;;;;;;;5068552;28;20048;-63
2022/11/08 14:43:52;;;;;;;3.83;1.80;;;;;;;;;;5073538;28;20392;-63
2022/11/08 14:46:29;;;;;;;2.67;1.57;;;;;;;;;;5073921;28;20020;-62
2022/11/08 14:48:56;;;;;;;2.23;1.40;;;;;;;;;;5073326;28;20036;-63
2022/11/08 14:51:23;;;;;;;5.30;1.77;;;;;;;;;;5073733;28;20040;-63
2022/11/08 14:53:51;;;;;;;16.07;2.90;;;;;;;;;;5072262;28;20538;-63
2022/11/08 14:56:22;;;;;;;6.47;3.10;;;;;;;;;;5067824;28;20056;-63
2022/11/08 14:58:50;;;;;;;3.63;2.20;;;;;;;;;;5068245;28;20052;-63
2022/11/08 15:01:19;;;;;;;4.77;1.53;;;;;;;;;;5067893;28;20107;-63
2022/11/08 15:03:56;;;;;;;1.27;0.60;;;;;;;;;;5068441;28;20062;-63
2022/11/08 15:06:30;;;;;;;1.43;0.63;;;;;;;;;;5073397;28;20078;-63
2022/11/08 15:08:57;;;;;;;4.35;1.05;;;;;;;;;;5073330;28;20082;-63
2022/11/08 15:11:35;;;;;;;1.13;0.80;;;;;;;;;;5073191;28;20379;-64
2022/11/08 15:14:06;;;;;;;1.00;0.60;;;;;;;;;;5073063;28;20029;-63
2022/11/08 15:16:43;;;;;;;2.20;0.87;;;;;;;;;;5070638;28;20024;-64